createdAt,value
2022-09-24T00:01:33.236Z,2.45
2022-09-24T00:05:15.494Z,2.45
2022-09-24T00:08:58.197Z,2.22
2022-09-24T00:12:40.495Z,2.13
2022-09-24T00:16:26.232Z,2.50
2022-09-24T00:20:08.886Z,1.98
2022-09-24T00:23:56.765Z,2.05
2022-09-24T00:27:38.948Z,2.10
2022-09-24T00:31:21.310Z,2.05
2022-09-24T00:35:03.835Z,2.45
2022-09-24T00:38:50.555Z,1.88
2022-09-24T00:42:32.948Z,2.80
2022-09-24T00:46:28.222Z,2.88
2022-09-24T00:50:32.195Z,1.80
2022-09-24T00:54:20.178Z,2.22
2022-09-24T00:58:06.234Z,2.10
2022-09-24T01:01:49.666Z,2.22
2022-09-24T01:05:32.248Z,2.47
2022-09-24T01:09:14.863Z,2.92
2022-09-24T01:13:18.066Z,2.92
2022-09-24T01:17:15.732Z,3.13
2022-09-24T01:21:16.420Z,3.28
2022-09-24T01:25:26.766Z,3.75
2022-09-24T01:29:33.734Z,3.60
2022-09-24T01:33:20.953Z,2.92
2022-09-24T01:37:03.938Z,3.50
2022-09-24T01:40:48.431Z,3.50
2022-09-24T01:44:31.821Z,3.92
2022-09-24T01:48:14.150Z,3.40
2022-09-24T01:52:02.009Z,2.92
2022-09-24T01:55:49.249Z,3.33
2022-09-24T01:59:44.410Z,3.65
2022-09-24T02:03:30.207Z,3.28
2022-09-24T02:07:19.497Z,3.13
2022-09-24T02:11:03.188Z,3.55
2022-09-24T02:14:51.972Z,3.25
2022-09-24T02:18:39.055Z,2.72
2022-09-24T02:22:22.759Z,2.92
2022-09-24T02:26:06.463Z,3.72
2022-09-24T02:29:48.925Z,3.65
2022-09-24T02:33:51.840Z,2.90
2022-09-24T02:37:39.569Z,2.78
2022-09-24T02:41:24.351Z,2.65
2022-09-24T02:45:07.481Z,2.42
2022-09-24T02:48:50.005Z,2.45
2022-09-24T02:52:32.087Z,2.20
2022-09-24T02:56:15.367Z,2.53
2022-09-24T02:59:57.823Z,2.47
2022-09-24T03:03:40.314Z,2.45
2022-09-24T03:07:22.952Z,2.80
2022-09-24T03:11:05.492Z,2.72
2022-09-24T03:14:47.890Z,2.25
2022-09-24T03:18:30.128Z,2.38
2022-09-24T03:22:12.200Z,2.92
2022-09-24T03:25:58.685Z,2.17
2022-09-24T03:29:59.553Z,2.40
2022-09-24T03:33:49.662Z,2.58
2022-09-24T03:37:33.118Z,2.10
2022-09-24T03:41:16.123Z,2.00
2022-09-24T03:44:59.086Z,2.45
2022-09-24T03:48:42.004Z,2.03
2022-09-24T03:52:24.923Z,2.05
2022-09-24T03:56:08.339Z,2.85
2022-09-24T03:59:52.734Z,1.83
2022-09-24T04:03:36.480Z,2.10
2022-09-24T04:11:03.633Z,2.20
2022-09-24T04:14:45.899Z,1.63
2022-09-24T04:18:28.392Z,1.88
2022-09-24T04:22:10.563Z,2.45
2022-09-24T04:25:52.979Z,2.00
2022-09-24T04:29:35.215Z,1.98
2022-09-24T04:33:17.550Z,1.50
2022-09-24T04:36:59.853Z,1.50
2022-09-24T04:50:03.325Z,1.50
2022-09-24T04:53:48.160Z,1.50
2022-09-24T04:57:36.712Z,1.30
2022-09-24T05:01:20.723Z,1.65
2022-09-24T05:05:03.490Z,1.38
2022-09-24T05:08:45.834Z,1.40
2022-09-24T05:12:28.689Z,1.52
2022-09-24T05:16:10.866Z,1.40
2022-09-24T05:19:53.888Z,1.38
2022-09-24T05:23:36.516Z,1.65
2022-09-24T05:27:19.904Z,1.45
2022-09-24T05:31:02.658Z,1.60
2022-09-24T05:34:46.096Z,1.35
2022-09-24T05:38:30.189Z,1.33
2022-09-24T05:42:15.952Z,1.55
2022-09-24T05:45:58.992Z,1.40
2022-09-24T05:49:41.142Z,1.25
2022-09-24T05:53:23.635Z,1.27
2022-09-24T05:57:05.850Z,1.55
2022-09-24T06:00:48.552Z,1.60
2022-09-24T06:04:31.362Z,1.60
2022-09-24T06:08:15.526Z,1.15
2022-09-24T06:11:57.650Z,1.50
2022-09-24T06:15:42.552Z,1.35
2022-09-24T06:19:24.803Z,1.40
2022-09-24T06:23:06.914Z,1.23
2022-09-24T06:26:49.039Z,1.60
2022-09-24T06:30:39.167Z,1.58
2022-09-24T06:34:21.551Z,1.70
2022-09-24T06:38:07.864Z,1.40
2022-09-24T06:41:51.739Z,1.77
2022-09-24T06:45:34.821Z,1.75
2022-09-24T06:49:17.026Z,1.60
2022-09-24T06:52:59.576Z,1.90
2022-09-24T06:56:41.807Z,1.40
2022-09-24T07:00:23.918Z,1.33
2022-09-24T07:04:06.323Z,1.42
2022-09-24T07:07:48.583Z,1.45
2022-09-24T07:11:57.207Z,1.70
2022-09-24T07:15:39.949Z,1.30
2022-09-24T07:19:22.157Z,1.55
2022-09-24T07:23:09.027Z,1.20
2022-09-24T07:26:51.239Z,1.60
2022-09-24T07:30:34.673Z,1.40
2022-09-24T07:34:16.896Z,1.20
2022-09-24T07:38:00.486Z,1.50
2022-09-24T07:41:43.009Z,1.20
2022-09-24T07:45:29.940Z,1.70
2022-09-24T07:49:15.307Z,1.50
2022-09-24T07:52:57.717Z,1.30
2022-09-24T07:56:39.970Z,1.20
2022-09-24T08:00:24.086Z,1.00
2022-09-24T08:04:06.394Z,1.20
2022-09-24T08:07:56.463Z,1.23
2022-09-24T08:11:39.689Z,1.10
2022-09-24T08:15:22.921Z,1.10
2022-09-24T08:19:04.972Z,1.20
2022-09-24T08:22:46.966Z,1.30
2022-09-24T08:26:29.045Z,1.40
2022-09-24T08:30:11.800Z,1.40
2022-09-24T08:33:53.838Z,1.17
2022-09-24T08:37:35.931Z,1.20
2022-09-24T08:41:54.185Z,1.02
2022-09-24T08:46:04.614Z,0.90
2022-09-24T08:49:50.687Z,0.95
2022-09-24T08:53:55.217Z,1.00
2022-09-24T08:57:47.007Z,0.85
2022-09-24T09:01:44.935Z,1.67
2022-09-24T09:05:54.515Z,0.88
2022-09-24T09:09:50.450Z,1.30
2022-09-24T09:13:57.807Z,1.05
2022-09-24T09:17:50.859Z,1.48
2022-09-24T09:21:55.049Z,1.30
2022-09-24T09:25:37.334Z,0.80
2022-09-24T09:29:19.533Z,0.95
2022-09-24T09:33:20.290Z,0.85
2022-09-24T09:37:26.179Z,0.70
2022-09-24T09:41:30.077Z,1.20
2022-09-24T09:45:44.276Z,1.05
2022-09-24T09:49:32.220Z,1.35
2022-09-24T09:53:21.689Z,0.90
2022-09-24T09:57:04.727Z,1.10
2022-09-24T10:00:50.105Z,1.00
2022-09-24T10:04:35.286Z,1.00
2022-09-24T10:08:24.822Z,1.00
2022-09-24T10:12:16.142Z,1.20
2022-09-24T10:16:01.015Z,1.10
2022-09-24T10:19:48.240Z,1.23
2022-09-24T10:23:37.957Z,0.88
2022-09-24T10:27:41.529Z,1.00
2022-09-24T10:31:25.571Z,0.98
2022-09-24T10:35:35.949Z,0.75
2022-09-24T10:39:18.377Z,0.70
2022-09-24T10:43:03.334Z,0.93
2022-09-24T10:47:02.362Z,0.93
2022-09-24T10:50:59.035Z,1.20
2022-09-24T10:55:17.951Z,1.10
2022-09-24T10:59:18.140Z,1.00
2022-09-24T11:03:31.784Z,1.00
2022-09-24T11:07:43.373Z,1.00
2022-09-24T11:11:57.176Z,0.90
2022-09-24T11:16:15.865Z,0.80
2022-09-24T11:20:11.964Z,0.98
2022-09-24T11:23:54.029Z,0.70
2022-09-24T11:27:38.760Z,0.98
2022-09-24T11:31:40.092Z,0.70
2022-09-24T11:35:51.564Z,0.70
2022-09-24T11:39:46.566Z,1.00
2022-09-24T11:44:02.760Z,0.80
2022-09-24T11:48:09.717Z,0.80
2022-09-24T11:52:05.911Z,0.90
2022-09-24T11:55:55.587Z,0.93
2022-09-24T12:00:18.144Z,0.80
2022-09-24T12:04:21.958Z,0.80
2022-09-24T12:08:29.195Z,0.88
2022-09-24T12:12:33.855Z,1.02
2022-09-24T12:16:22.358Z,0.73
2022-09-24T12:20:29.232Z,1.15
2022-09-24T12:24:46.257Z,0.82
2022-09-24T12:29:11.271Z,1.20
2022-09-24T12:33:09.023Z,0.65
2022-09-24T12:37:01.565Z,0.70
2022-09-24T12:41:08.654Z,0.80
2022-09-24T12:44:55.100Z,0.70
2022-09-24T12:48:38.829Z,0.90
2022-09-24T12:52:27.682Z,0.90
2022-09-24T12:56:11.533Z,0.50
2022-09-24T12:59:56.919Z,0.68
2022-09-24T13:03:46.216Z,0.65
2022-09-24T13:07:36.169Z,0.80
2022-09-24T13:11:35.075Z,0.98
2022-09-24T13:15:38.865Z,0.80
2022-09-24T13:19:31.320Z,0.68
2022-09-24T13:23:21.953Z,0.75
2022-09-24T13:27:21.978Z,0.60
2022-09-24T13:31:22.607Z,0.88
2022-09-24T13:35:11.489Z,0.70
2022-09-24T13:38:56.561Z,0.70
2022-09-24T13:43:00.489Z,0.80
2022-09-24T13:46:46.108Z,0.80
2022-09-24T13:50:33.620Z,0.75
2022-09-24T13:54:35.111Z,0.80
2022-09-24T13:58:41.814Z,0.80
2022-09-24T14:02:28.570Z,0.70
2022-09-24T14:06:22.233Z,0.82
2022-09-24T14:10:08.369Z,0.70
2022-09-24T14:13:56.501Z,0.90
2022-09-24T14:17:38.777Z,0.85
2022-09-24T14:21:39.052Z,0.70
2022-09-24T14:25:28.818Z,0.73
2022-09-24T14:29:38.382Z,0.90
2022-09-24T14:33:26.368Z,0.80
2022-09-24T14:37:36.394Z,1.20
2022-09-24T14:41:29.339Z,0.60
2022-09-24T14:45:26.190Z,0.77
2022-09-24T14:49:26.840Z,0.60
2022-09-24T14:57:01.514Z,0.80
2022-09-24T15:00:50.622Z,1.00
2022-09-24T15:04:33.414Z,0.93
2022-09-24T15:08:28.629Z,0.80
2022-09-24T15:12:30.958Z,0.80
2022-09-24T15:16:32.297Z,0.90
2022-09-24T15:20:15.543Z,0.60
2022-09-24T15:23:58.027Z,1.05
2022-09-24T15:27:42.420Z,0.95
2022-09-24T15:31:27.792Z,0.85
2022-09-24T15:35:15.282Z,0.77
2022-09-24T15:39:03.467Z,0.70
2022-09-24T15:42:45.667Z,0.80
2022-09-24T15:46:28.082Z,0.80
2022-09-24T15:50:12.001Z,0.75
2022-09-24T15:53:54.649Z,0.80
2022-09-24T15:57:37.080Z,0.93
2022-09-24T16:01:19.394Z,0.70
2022-09-24T16:05:04.111Z,0.80
2022-09-24T16:08:46.907Z,0.88
2022-09-24T16:12:29.014Z,0.55
2022-09-24T16:16:11.953Z,0.90
2022-09-24T16:19:54.285Z,0.70
2022-09-24T16:23:36.260Z,0.60
2022-09-24T16:27:18.384Z,0.70
2022-09-24T16:31:05.036Z,0.60
2022-09-24T16:34:47.085Z,0.50
2022-09-24T16:38:29.147Z,0.82
2022-09-24T16:42:11.219Z,0.65
2022-09-24T16:45:53.301Z,0.80
2022-09-24T16:49:35.638Z,0.60
2022-09-24T16:53:17.747Z,0.70
2022-09-24T16:57:01.918Z,1.00
2022-09-24T17:00:44.105Z,1.02
2022-09-24T17:04:27.301Z,1.00
2022-09-24T17:08:09.375Z,1.00
2022-09-24T17:11:51.374Z,0.90
2022-09-24T17:15:35.017Z,0.80
2022-09-24T17:19:17.128Z,0.73
2022-09-24T17:22:59.351Z,0.93
2022-09-24T17:26:41.528Z,0.90
2022-09-24T17:30:23.747Z,0.85
2022-09-24T17:34:09.823Z,1.15
2022-09-24T17:37:55.985Z,0.77
2022-09-24T17:41:38.229Z,0.90
2022-09-24T17:45:21.641Z,1.10
2022-09-24T17:49:04.202Z,1.00
2022-09-24T17:52:46.424Z,1.20
2022-09-24T17:56:30.361Z,1.10
2022-09-24T18:00:12.979Z,1.08
2022-09-24T18:08:52.613Z,1.40
2022-09-24T18:12:34.964Z,1.30
2022-09-24T18:16:18.612Z,1.30
2022-09-24T18:20:02.182Z,1.00
2022-09-24T18:23:44.542Z,1.00
2022-09-24T18:27:26.782Z,1.20
2022-09-24T18:31:11.439Z,1.15
2022-09-24T18:34:53.502Z,1.10
2022-09-24T18:38:36.328Z,1.30
2022-09-24T18:42:18.485Z,1.48
2022-09-24T18:46:09.311Z,1.50
2022-09-24T18:49:51.863Z,1.20
2022-09-24T18:53:35.395Z,1.33
2022-09-24T18:57:17.499Z,1.20
2022-09-24T19:01:01.012Z,1.20
2022-09-24T19:04:43.253Z,1.45
2022-09-24T19:08:25.491Z,1.40
2022-09-24T19:12:09.014Z,1.00
2022-09-24T19:15:51.629Z,1.02
2022-09-24T19:19:33.738Z,1.17
2022-09-24T19:23:17.520Z,0.90
2022-09-24T19:26:59.827Z,1.08
2022-09-24T19:30:47.923Z,0.98
2022-09-24T19:34:30.043Z,1.10
2022-09-24T19:38:12.281Z,1.30
2022-09-24T19:41:54.328Z,1.10
2022-09-24T19:45:38.555Z,0.90
2022-09-24T19:49:20.899Z,1.00
2022-09-24T19:53:03.741Z,1.15
2022-09-24T19:56:45.949Z,0.98
2022-09-24T20:00:28.097Z,1.08
2022-09-24T20:04:10.376Z,1.00
2022-09-24T20:07:52.495Z,1.27
2022-09-24T20:11:35.229Z,1.13
2022-09-24T20:15:17.513Z,1.10
2022-09-24T20:19:00.353Z,0.98
2022-09-24T20:22:42.673Z,1.00
2022-09-24T20:26:44.035Z,1.10
2022-09-24T20:30:26.480Z,0.90
2022-09-24T20:34:09.509Z,0.93
2022-09-24T20:37:51.732Z,1.10
2022-09-24T20:41:34.240Z,1.23
2022-09-24T20:45:17.691Z,1.10
2022-09-24T20:49:00.742Z,0.90
2022-09-24T20:52:42.867Z,1.20
2022-09-24T20:56:25.385Z,0.90
2022-09-24T21:00:08.701Z,1.20
2022-09-24T21:03:51.333Z,1.08
2022-09-24T21:07:35.616Z,0.98
2022-09-24T21:11:26.951Z,1.10
2022-09-24T21:15:10.094Z,1.00
2022-09-24T21:18:54.546Z,1.00
2022-09-24T21:22:36.657Z,1.10
2022-09-24T21:26:27.682Z,1.10
2022-09-24T21:30:12.878Z,1.20
2022-09-24T21:33:58.713Z,1.00
2022-09-24T21:37:41.065Z,1.17
2022-09-24T21:41:32.774Z,1.67
2022-09-24T21:45:14.882Z,1.50
2022-09-24T21:48:57.451Z,2.08
2022-09-24T21:52:39.803Z,1.25
2022-09-24T21:56:22.190Z,1.30
2022-09-24T22:00:10.404Z,1.20
2022-09-24T22:03:55.262Z,1.20
2022-09-24T22:07:38.469Z,1.20
2022-09-24T22:11:20.878Z,1.30
2022-09-24T22:15:03.099Z,1.15
2022-09-24T22:18:45.198Z,1.08
2022-09-24T22:22:27.281Z,1.25
2022-09-24T22:26:10.699Z,1.48
2022-09-24T22:29:52.800Z,1.17
2022-09-24T22:33:53.859Z,1.13
2022-09-24T22:37:36.035Z,1.48
2022-09-24T22:41:18.037Z,1.17
2022-09-24T22:45:00.424Z,1.48
2022-09-24T22:48:44.599Z,1.20
2022-09-24T22:52:26.900Z,1.00
2022-09-24T22:56:20.359Z,1.10
2022-09-24T23:00:04.414Z,1.23
2022-09-24T23:03:46.506Z,1.30
2022-09-24T23:07:31.826Z,1.30
2022-09-24T23:11:22.880Z,1.30
2022-09-24T23:15:05.540Z,1.10
2022-09-24T23:18:49.196Z,1.08
2022-09-24T23:22:31.330Z,1.25
2022-09-24T23:26:16.971Z,1.23
2022-09-24T23:30:00.227Z,1.20
2022-09-24T23:33:42.799Z,1.35
2022-09-24T23:37:25.037Z,1.63
2022-09-24T23:41:08.884Z,1.13
2022-09-24T23:44:51.635Z,1.38
2022-09-24T23:48:37.109Z,1.30
2022-09-24T23:52:19.524Z,1.30
2022-09-24T23:56:02.592Z,1.30
2022-09-24T23:59:44.741Z,1.40
